sensor_id;sensor_type;location;lat;lon;timestamp;temperature;humidity
1329;DHT22;658;48.820;9.354;2023-09-12T00:03:39;23.40;71.00
1329;DHT22;658;48.820;9.354;2023-09-12T00:07:39;23.30;70.80
1329;DHT22;658;48.820;9.354;2023-09-12T00:11:40;23.30;70.80
1329;DHT22;658;48.820;9.354;2023-09-12T00:15:40;23.30;71.10
1329;DHT22;658;48.820;9.354;2023-09-12T00:19:42;23.30;71.00
1329;DHT22;658;48.820;9.354;2023-09-12T00:23:45;23.30;70.90
1329;DHT22;658;48.820;9.354;2023-09-12T00:27:48;23.40;70.60
1329;DHT22;658;48.820;9.354;2023-09-12T00:31:49;23.30;70.40
1329;DHT22;658;48.820;9.354;2023-09-12T00:35:50;23.30;70.80
1329;DHT22;658;48.820;9.354;2023-09-12T00:39:50;23.30;70.60
1329;DHT22;658;48.820;9.354;2023-09-12T00:43:51;23.20;70.50
1329;DHT22;658;48.820;9.354;2023-09-12T00:47:54;23.20;70.80
1329;DHT22;658;48.820;9.354;2023-09-12T00:51:56;23.20;70.70
1329;DHT22;658;48.820;9.354;2023-09-12T00:55:58;23.20;70.40
1329;DHT22;658;48.820;9.354;2023-09-12T01:00:04;23.10;70.50
1329;DHT22;658;48.820;9.354;2023-09-12T01:04:11;23.00;70.50
1329;DHT22;658;48.820;9.354;2023-09-12T01:08:12;22.90;70.70
1329;DHT22;658;48.820;9.354;2023-09-12T01:12:13;22.90;71.00
1329;DHT22;658;48.820;9.354;2023-09-12T01:16:14;22.90;71.30
1329;DHT22;658;48.820;9.354;2023-09-12T01:20:23;22.80;71.20
1329;DHT22;658;48.820;9.354;2023-09-12T01:29:00;22.80;71.20
1329;DHT22;658;48.820;9.354;2023-09-12T01:33:03;22.70;71.30
1329;DHT22;658;48.820;9.354;2023-09-12T01:37:04;22.80;71.30
1329;DHT22;658;48.820;9.354;2023-09-12T01:41:05;22.80;71.40
1329;DHT22;658;48.820;9.354;2023-09-12T01:45:09;22.80;71.70
1329;DHT22;658;48.820;9.354;2023-09-12T01:49:11;22.80;71.40
1329;DHT22;658;48.820;9.354;2023-09-12T01:53:12;22.80;71.10
1329;DHT22;658;48.820;9.354;2023-09-12T01:57:16;22.80;70.50
1329;DHT22;658;48.820;9.354;2023-09-12T02:01:17;22.80;70.70
1329;DHT22;658;48.820;9.354;2023-09-12T02:05:20;22.70;70.50
1329;DHT22;658;48.820;9.354;2023-09-12T02:09:21;22.70;70.80
1329;DHT22;658;48.820;9.354;2023-09-12T02:13:22;22.60;71.10
1329;DHT22;658;48.820;9.354;2023-09-12T02:17:22;22.60;71.00
1329;DHT22;658;48.820;9.354;2023-09-12T02:21:23;22.40;71.10
1329;DHT22;658;48.820;9.354;2023-09-12T02:25:26;22.40;71.70
1329;DHT22;658;48.820;9.354;2023-09-12T02:29:26;22.20;72.10
1329;DHT22;658;48.820;9.354;2023-09-12T02:33:27;22.10;72.70
1329;DHT22;658;48.820;9.354;2023-09-12T02:37:30;22.00;73.20
1329;DHT22;658;48.820;9.354;2023-09-12T02:41:33;21.90;73.80
1329;DHT22;658;48.820;9.354;2023-09-12T02:45:34;21.90;73.80
1329;DHT22;658;48.820;9.354;2023-09-12T02:49:34;21.90;73.70
1329;DHT22;658;48.820;9.354;2023-09-12T02:53:35;21.80;74.00
1329;DHT22;658;48.820;9.354;2023-09-12T02:57:35;21.70;74.40
1329;DHT22;658;48.820;9.354;2023-09-12T03:01:36;21.60;75.00
1329;DHT22;658;48.820;9.354;2023-09-12T03:05:37;21.50;75.50
1329;DHT22;658;48.820;9.354;2023-09-12T03:09:37;21.40;76.10
1329;DHT22;658;48.820;9.354;2023-09-12T03:13:41;21.30;76.70
1329;DHT22;658;48.820;9.354;2023-09-12T03:17:42;21.10;77.20
1329;DHT22;658;48.820;9.354;2023-09-12T03:21:43;21.00;77.80
1329;DHT22;658;48.820;9.354;2023-09-12T03:25:43;21.00;78.10
1329;DHT22;658;48.820;9.354;2023-09-12T03:29:48;20.90;78.30
1329;DHT22;658;48.820;9.354;2023-09-12T03:33:48;20.80;78.50
1329;DHT22;658;48.820;9.354;2023-09-12T03:37:50;20.80;78.60
1329;DHT22;658;48.820;9.354;2023-09-12T03:41:53;20.80;78.80
1329;DHT22;658;48.820;9.354;2023-09-12T03:45:54;20.70;78.80
1329;DHT22;658;48.820;9.354;2023-09-12T03:49:55;20.70;78.90
1329;DHT22;658;48.820;9.354;2023-09-12T03:53:55;20.70;78.70
1329;DHT22;658;48.820;9.354;2023-09-12T03:57:56;20.80;78.40
1329;DHT22;658;48.820;9.354;2023-09-12T04:01:56;20.80;78.20
1329;DHT22;658;48.820;9.354;2023-09-12T04:05:57;20.90;78.20
1329;DHT22;658;48.820;9.354;2023-09-12T04:10:00;20.90;77.90
1329;DHT22;658;48.820;9.354;2023-09-12T04:14:00;20.90;77.90
1329;DHT22;658;48.820;9.354;2023-09-12T04:18:01;20.90;77.80
1329;DHT22;658;48.820;9.354;2023-09-12T04:22:01;20.80;78.00
1329;DHT22;658;48.820;9.354;2023-09-12T04:26:02;20.70;78.20
1329;DHT22;658;48.820;9.354;2023-09-12T04:30:04;20.70;78.70
1329;DHT22;658;48.820;9.354;2023-09-12T04:34:05;20.60;78.90
1329;DHT22;658;48.820;9.354;2023-09-12T04:38:05;20.60;79.10
1329;DHT22;658;48.820;9.354;2023-09-12T04:42:06;20.70;79.10
1329;DHT22;658;48.820;9.354;2023-09-12T04:46:06;20.80;80.60
1329;DHT22;658;48.820;9.354;2023-09-12T04:50:07;21.00;80.40
1329;DHT22;658;48.820;9.354;2023-09-12T04:54:08;21.20;79.30
1329;DHT22;658;48.820;9.354;2023-09-12T04:58:09;21.30;77.90
1329;DHT22;658;48.820;9.354;2023-09-12T05:02:12;21.50;77.20
1329;DHT22;658;48.820;9.354;2023-09-12T05:06:13;21.60;76.10
1329;DHT22;658;48.820;9.354;2023-09-12T05:10:17;21.50;75.50
1329;DHT22;658;48.820;9.354;2023-09-12T05:14:18;21.40;75.40
1329;DHT22;658;48.820;9.354;2023-09-12T05:18:19;21.30;75.70
1329;DHT22;658;48.820;9.354;2023-09-12T05:22:19;21.20;76.10
1329;DHT22;658;48.820;9.354;2023-09-12T05:26:20;21.10;76.40
1329;DHT22;658;48.820;9.354;2023-09-12T05:30:21;21.10;76.70
1329;DHT22;658;48.820;9.354;2023-09-12T05:34:21;21.10;76.60
1329;DHT22;658;48.820;9.354;2023-09-12T05:38:22;21.20;76.80
1329;DHT22;658;48.820;9.354;2023-09-12T05:42:23;21.50;76.20
1329;DHT22;658;48.820;9.354;2023-09-12T05:46:24;21.60;76.00
1329;DHT22;658;48.820;9.354;2023-09-12T05:50:26;21.70;75.60
1329;DHT22;658;48.820;9.354;2023-09-12T05:54:27;21.80;75.10
1329;DHT22;658;48.820;9.354;2023-09-12T05:58:30;21.90;74.60
1329;DHT22;658;48.820;9.354;2023-09-12T06:02:33;22.00;73.70
1329;DHT22;658;48.820;9.354;2023-09-12T06:06:34;22.10;73.60
1329;DHT22;658;48.820;9.354;2023-09-12T06:10:34;22.20;73.40
1329;DHT22;658;48.820;9.354;2023-09-12T06:14:35;22.30;72.80
1329;DHT22;658;48.820;9.354;2023-09-12T06:18:35;22.30;72.50
1329;DHT22;658;48.820;9.354;2023-09-12T06:22:36;22.30;72.10
1329;DHT22;658;48.820;9.354;2023-09-12T06:26:37;22.40;72.00
1329;DHT22;658;48.820;9.354;2023-09-12T06:30:38;22.50;72.00
1329;DHT22;658;48.820;9.354;2023-09-12T06:34:38;22.50;71.70
1329;DHT22;658;48.820;9.354;2023-09-12T06:38:41;22.60;71.70
1329;DHT22;658;48.820;9.354;2023-09-12T06:42:42;22.70;71.50
1329;DHT22;658;48.820;9.354;2023-09-12T06:46:43;22.70;71.00
1329;DHT22;658;48.820;9.354;2023-09-12T06:50:43;22.80;70.80
1329;DHT22;658;48.820;9.354;2023-09-12T06:54:44;22.80;71.00
1329;DHT22;658;48.820;9.354;2023-09-12T06:58:47;22.90;70.70
1329;DHT22;658;48.820;9.354;2023-09-12T07:02:47;23.00;70.50
1329;DHT22;658;48.820;9.354;2023-09-12T07:06:48;23.10;70.40
1329;DHT22;658;48.820;9.354;2023-09-12T07:10:48;23.10;70.30
1329;DHT22;658;48.820;9.354;2023-09-12T07:14:49;23.10;70.20
1329;DHT22;658;48.820;9.354;2023-09-12T07:18:51;23.20;70.20
1329;DHT22;658;48.820;9.354;2023-09-12T07:22:52;23.20;70.00
1329;DHT22;658;48.820;9.354;2023-09-12T07:26:52;23.30;69.90
1329;DHT22;658;48.820;9.354;2023-09-12T07:30:56;23.40;70.00
1329;DHT22;658;48.820;9.354;2023-09-12T07:34:57;23.40;69.70
1329;DHT22;658;48.820;9.354;2023-09-12T07:38:58;23.50;69.50
1329;DHT22;658;48.820;9.354;2023-09-12T07:42:58;23.60;69.80
1329;DHT22;658;48.820;9.354;2023-09-12T07:46:59;23.70;69.40
1329;DHT22;658;48.820;9.354;2023-09-12T07:50:59;23.70;69.10
1329;DHT22;658;48.820;9.354;2023-09-12T07:55:01;23.80;68.80
1329;DHT22;658;48.820;9.354;2023-09-12T07:59:02;23.90;68.80
1329;DHT22;658;48.820;9.354;2023-09-12T08:03:03;23.90;68.50
1329;DHT22;658;48.820;9.354;2023-09-12T08:07:04;24.00;68.30
1329;DHT22;658;48.820;9.354;2023-09-12T08:11:04;24.00;68.20
1329;DHT22;658;48.820;9.354;2023-09-12T08:15:06;24.00;68.10
1329;DHT22;658;48.820;9.354;2023-09-12T08:19:06;24.10;67.90
1329;DHT22;658;48.820;9.354;2023-09-12T08:23:07;24.10;67.60
1329;DHT22;658;48.820;9.354;2023-09-12T08:27:08;24.20;67.60
1329;DHT22;658;48.820;9.354;2023-09-12T08:31:10;24.30;67.60
1329;DHT22;658;48.820;9.354;2023-09-12T08:35:11;24.30;67.40
1329;DHT22;658;48.820;9.354;2023-09-12T08:39:15;24.30;67.30
1329;DHT22;658;48.820;9.354;2023-09-12T08:43:16;24.40;67.20
1329;DHT22;658;48.820;9.354;2023-09-12T08:47:18;24.40;67.00
1329;DHT22;658;48.820;9.354;2023-09-12T08:51:19;24.50;67.00
1329;DHT22;658;48.820;9.354;2023-09-12T08:55:20;24.50;67.20
1329;DHT22;658;48.820;9.354;2023-09-12T08:59:20;24.50;66.80
1329;DHT22;658;48.820;9.354;2023-09-12T09:03:22;24.50;66.70
1329;DHT22;658;48.820;9.354;2023-09-12T09:07:24;24.50;66.60
1329;DHT22;658;48.820;9.354;2023-09-12T09:11:24;24.60;66.70
1329;DHT22;658;48.820;9.354;2023-09-12T09:15:29;24.60;66.60
1329;DHT22;658;48.820;9.354;2023-09-12T09:19:43;24.60;65.90
1329;DHT22;658;48.820;9.354;2023-09-12T09:23:47;24.70;66.50
1329;DHT22;658;48.820;9.354;2023-09-12T09:27:50;24.70;66.50
1329;DHT22;658;48.820;9.354;2023-09-12T09:31:51;24.80;66.70
1329;DHT22;658;48.820;9.354;2023-09-12T09:36:05;24.80;66.60
1329;DHT22;658;48.820;9.354;2023-09-12T09:40:06;24.80;66.50
1329;DHT22;658;48.820;9.354;2023-09-12T09:44:08;24.90;66.50
1329;DHT22;658;48.820;9.354;2023-09-12T09:48:09;24.90;66.30
1329;DHT22;658;48.820;9.354;2023-09-12T09:52:09;25.00;66.30
1329;DHT22;658;48.820;9.354;2023-09-12T09:56:12;25.00;66.00
1329;DHT22;658;48.820;9.354;2023-09-12T10:00:13;25.10;65.80
1329;DHT22;658;48.820;9.354;2023-09-12T10:04:15;25.10;65.80
1329;DHT22;658;48.820;9.354;2023-09-12T10:08:16;25.20;65.80
1329;DHT22;658;48.820;9.354;2023-09-12T10:12:18;25.20;65.50
1329;DHT22;658;48.820;9.354;2023-09-12T10:16:22;25.20;65.40
1329;DHT22;658;48.820;9.354;2023-09-12T10:20:35;25.30;65.30
1329;DHT22;658;48.820;9.354;2023-09-12T10:24:38;25.30;65.10
1329;DHT22;658;48.820;9.354;2023-09-12T10:28:43;25.40;65.00
1329;DHT22;658;48.820;9.354;2023-09-12T10:32:45;25.40;64.70
1329;DHT22;658;48.820;9.354;2023-09-12T10:36:48;25.50;64.70
1329;DHT22;658;48.820;9.354;2023-09-12T10:40:50;25.60;64.50
1329;DHT22;658;48.820;9.354;2023-09-12T10:44:52;25.60;64.40
1329;DHT22;658;48.820;9.354;2023-09-12T10:48:54;25.70;64.10
1329;DHT22;658;48.820;9.354;2023-09-12T10:52:56;25.80;64.00
1329;DHT22;658;48.820;9.354;2023-09-12T10:57:10;25.80;63.70
1329;DHT22;658;48.820;9.354;2023-09-12T11:01:22;25.90;63.60
1329;DHT22;658;48.820;9.354;2023-09-12T11:09:28;26.00;63.20
1329;DHT22;658;48.820;9.354;2023-09-12T11:13:38;26.10;62.90
1329;DHT22;658;48.820;9.354;2023-09-12T11:18:04;26.20;62.50
1329;DHT22;658;48.820;9.354;2023-09-12T11:22:24;26.20;62.30
1329;DHT22;658;48.820;9.354;2023-09-12T11:26:25;26.20;62.40
1329;DHT22;658;48.820;9.354;2023-09-12T11:30:29;26.20;62.60
1329;DHT22;658;48.820;9.354;2023-09-12T11:34:41;26.20;62.70
1329;DHT22;658;48.820;9.354;2023-09-12T11:38:43;26.10;63.00
1329;DHT22;658;48.820;9.354;2023-09-12T11:42:44;26.10;63.10
1329;DHT22;658;48.820;9.354;2023-09-12T11:46:50;26.10;63.20
1329;DHT22;658;48.820;9.354;2023-09-12T11:50:55;26.10;63.30
1329;DHT22;658;48.820;9.354;2023-09-12T11:54:56;26.10;63.00
1329;DHT22;658;48.820;9.354;2023-09-12T11:58:57;26.10;63.30
1329;DHT22;658;48.820;9.354;2023-09-12T12:02:57;26.10;63.30
1329;DHT22;658;48.820;9.354;2023-09-12T12:06:58;26.10;63.30
1329;DHT22;658;48.820;9.354;2023-09-12T12:10:59;26.10;63.00
1329;DHT22;658;48.820;9.354;2023-09-12T12:15:00;26.10;63.40
1329;DHT22;658;48.820;9.354;2023-09-12T12:19:03;26.10;63.40
1329;DHT22;658;48.820;9.354;2023-09-12T12:23:03;26.10;63.30
1329;DHT22;658;48.820;9.354;2023-09-12T12:27:04;26.10;63.30
1329;DHT22;658;48.820;9.354;2023-09-12T12:31:05;26.10;63.30
1329;DHT22;658;48.820;9.354;2023-09-12T12:35:06;26.00;63.20
1329;DHT22;658;48.820;9.354;2023-09-12T12:39:10;26.10;63.50
1329;DHT22;658;48.820;9.354;2023-09-12T12:43:20;26.10;63.30
1329;DHT22;658;48.820;9.354;2023-09-12T12:47:21;26.10;63.10
1329;DHT22;658;48.820;9.354;2023-09-12T12:51:25;26.10;63.10
1329;DHT22;658;48.820;9.354;2023-09-12T12:55:25;26.10;63.00
1329;DHT22;658;48.820;9.354;2023-09-12T12:59:26;26.20;63.00
1329;DHT22;658;48.820;9.354;2023-09-12T13:03:27;26.20;62.90
1329;DHT22;658;48.820;9.354;2023-09-12T13:07:27;26.20;62.90
1329;DHT22;658;48.820;9.354;2023-09-12T13:11:28;26.20;62.90
1329;DHT22;658;48.820;9.354;2023-09-12T13:15:29;26.20;63.10
1329;DHT22;658;48.820;9.354;2023-09-12T13:19:29;26.30;62.90
1329;DHT22;658;48.820;9.354;2023-09-12T13:23:33;26.30;62.80
1329;DHT22;658;48.820;9.354;2023-09-12T13:27:33;26.30;62.70
1329;DHT22;658;48.820;9.354;2023-09-12T13:31:36;26.30;62.20
1329;DHT22;658;48.820;9.354;2023-09-12T13:35:38;26.30;62.40
1329;DHT22;658;48.820;9.354;2023-09-12T13:39:38;26.30;62.60
1329;DHT22;658;48.820;9.354;2023-09-12T13:43:39;26.40;62.60
1329;DHT22;658;48.820;9.354;2023-09-12T13:47:40;26.30;62.60
1329;DHT22;658;48.820;9.354;2023-09-12T13:51:43;26.40;62.60
1329;DHT22;658;48.820;9.354;2023-09-12T13:55:43;26.40;63.40
1329;DHT22;658;48.820;9.354;2023-09-12T13:59:44;26.40;62.60
1329;DHT22;658;48.820;9.354;2023-09-12T14:03:44;26.40;62.50
1329;DHT22;658;48.820;9.354;2023-09-12T14:07:45;26.40;62.50
1329;DHT22;658;48.820;9.354;2023-09-12T14:11:46;26.40;62.30
1329;DHT22;658;48.820;9.354;2023-09-12T14:15:48;26.40;62.30
1329;DHT22;658;48.820;9.354;2023-09-12T14:19:50;26.40;62.20
1329;DHT22;658;48.820;9.354;2023-09-12T14:23:50;26.50;62.40
1329;DHT22;658;48.820;9.354;2023-09-12T14:27:51;26.50;62.50
1329;DHT22;658;48.820;9.354;2023-09-12T14:31:51;26.50;62.60
1329;DHT22;658;48.820;9.354;2023-09-12T14:35:57;26.50;62.40
1329;DHT22;658;48.820;9.354;2023-09-12T14:39:58;26.50;62.50
1329;DHT22;658;48.820;9.354;2023-09-12T14:44:01;26.50;62.70
1329;DHT22;658;48.820;9.354;2023-09-12T14:48:06;26.40;62.70
1329;DHT22;658;48.820;9.354;2023-09-12T14:52:11;26.40;62.60
1329;DHT22;658;48.820;9.354;2023-09-12T14:56:12;26.40;62.70
1329;DHT22;658;48.820;9.354;2023-09-12T15:00:12;26.40;62.90
1329;DHT22;658;48.820;9.354;2023-09-12T15:04:13;26.40;63.00
1329;DHT22;658;48.820;9.354;2023-09-12T15:08:14;26.40;63.20
1329;DHT22;658;48.820;9.354;2023-09-12T15:12:14;26.40;63.50
1329;DHT22;658;48.820;9.354;2023-09-12T15:16:15;26.40;63.40
1329;DHT22;658;48.820;9.354;2023-09-12T15:20:16;26.40;63.40
1329;DHT22;658;48.820;9.354;2023-09-12T15:24:19;26.50;63.40
1329;DHT22;658;48.820;9.354;2023-09-12T15:28:20;26.40;63.30
1329;DHT22;658;48.820;9.354;2023-09-12T15:32:22;26.40;63.20
1329;DHT22;658;48.820;9.354;2023-09-12T15:36:23;26.50;63.40
1329;DHT22;658;48.820;9.354;2023-09-12T15:40:24;26.40;63.30
1329;DHT22;658;48.820;9.354;2023-09-12T15:44:24;26.40;63.30
1329;DHT22;658;48.820;9.354;2023-09-12T15:48:25;26.40;63.40
1329;DHT22;658;48.820;9.354;2023-09-12T15:52:26;26.40;63.50
1329;DHT22;658;48.820;9.354;2023-09-12T15:56:27;26.40;63.50
1329;DHT22;658;48.820;9.354;2023-09-12T16:00:27;26.40;63.60
1329;DHT22;658;48.820;9.354;2023-09-12T16:04:28;26.40;63.80
1329;DHT22;658;48.820;9.354;2023-09-12T16:08:29;26.30;63.90
1329;DHT22;658;48.820;9.354;2023-09-12T16:12:29;26.30;64.10
1329;DHT22;658;48.820;9.354;2023-09-12T16:16:30;26.30;64.20
1329;DHT22;658;48.820;9.354;2023-09-12T16:20:33;26.30;64.20
1329;DHT22;658;48.820;9.354;2023-09-12T16:24:34;26.30;64.40
1329;DHT22;658;48.820;9.354;2023-09-12T16:28:34;26.30;64.30
1329;DHT22;658;48.820;9.354;2023-09-12T16:32:37;26.30;64.30
1329;DHT22;658;48.820;9.354;2023-09-12T16:36:37;26.30;64.20
1329;DHT22;658;48.820;9.354;2023-09-12T16:40:38;26.30;64.20
1329;DHT22;658;48.820;9.354;2023-09-12T16:44:39;26.40;64.40
1329;DHT22;658;48.820;9.354;2023-09-12T16:48:41;26.40;64.50
1329;DHT22;658;48.820;9.354;2023-09-12T16:52:46;26.40;64.70
1329;DHT22;658;48.820;9.354;2023-09-12T16:56:47;26.40;64.70
1329;DHT22;658;48.820;9.354;2023-09-12T17:00:47;26.40;64.90
1329;DHT22;658;48.820;9.354;2023-09-12T17:04:48;26.40;64.90
1329;DHT22;658;48.820;9.354;2023-09-12T17:08:49;26.40;64.90
1329;DHT22;658;48.820;9.354;2023-09-12T17:12:49;26.40;65.00
1329;DHT22;658;48.820;9.354;2023-09-12T17:16:50;26.40;65.00
1329;DHT22;658;48.820;9.354;2023-09-12T17:20:53;26.40;65.20
1329;DHT22;658;48.820;9.354;2023-09-12T17:24:54;26.40;65.20
1329;DHT22;658;48.820;9.354;2023-09-12T17:28:58;26.40;66.20
1329;DHT22;658;48.820;9.354;2023-09-12T17:33:00;26.40;65.50
1329;DHT22;658;48.820;9.354;2023-09-12T17:37:01;26.40;65.30
1329;DHT22;658;48.820;9.354;2023-09-12T17:41:01;26.40;65.20
1329;DHT22;658;48.820;9.354;2023-09-12T17:45:03;26.40;65.10
1329;DHT22;658;48.820;9.354;2023-09-12T17:49:03;26.30;65.40
1329;DHT22;658;48.820;9.354;2023-09-12T17:53:04;26.40;64.40
1329;DHT22;658;48.820;9.354;2023-09-12T17:57:05;26.40;64.40
1329;DHT22;658;48.820;9.354;2023-09-12T18:01:05;26.40;64.50
1329;DHT22;658;48.820;9.354;2023-09-12T18:05:06;26.40;64.40
1329;DHT22;658;48.820;9.354;2023-09-12T18:09:11;26.50;63.90
1329;DHT22;658;48.820;9.354;2023-09-12T18:13:12;26.50;63.00
1329;DHT22;658;48.820;9.354;2023-09-12T18:17:12;26.50;62.60
1329;DHT22;658;48.820;9.354;2023-09-12T18:21:14;26.50;62.50
1329;DHT22;658;48.820;9.354;2023-09-12T18:25:15;26.60;62.50
1329;DHT22;658;48.820;9.354;2023-09-12T18:29:21;26.50;62.60
1329;DHT22;658;48.820;9.354;2023-09-12T18:33:22;26.50;62.10
1329;DHT22;658;48.820;9.354;2023-09-12T18:37:23;26.50;62.10
1329;DHT22;658;48.820;9.354;2023-09-12T18:41:24;26.60;62.10
1329;DHT22;658;48.820;9.354;2023-09-12T18:45:24;26.60;62.00
1329;DHT22;658;48.820;9.354;2023-09-12T18:49:27;26.50;61.70
1329;DHT22;658;48.820;9.354;2023-09-12T18:53:28;26.50;61.50
1329;DHT22;658;48.820;9.354;2023-09-12T18:57:28;26.50;61.40
1329;DHT22;658;48.820;9.354;2023-09-12T19:01:32;26.40;61.10
1329;DHT22;658;48.820;9.354;2023-09-12T19:05:33;26.40;59.90
1329;DHT22;658;48.820;9.354;2023-09-12T19:09:34;26.30;59.90
1329;DHT22;658;48.820;9.354;2023-09-12T19:13:37;26.20;59.70
1329;DHT22;658;48.820;9.354;2023-09-12T19:17:38;26.20;60.20
1329;DHT22;658;48.820;9.354;2023-09-12T19:21:39;26.20;60.10
1329;DHT22;658;48.820;9.354;2023-09-12T19:25:40;26.20;60.40
1329;DHT22;658;48.820;9.354;2023-09-12T19:29:52;26.10;59.90
1329;DHT22;658;48.820;9.354;2023-09-12T19:33:53;26.00;59.90
1329;DHT22;658;48.820;9.354;2023-09-12T19:37:54;26.00;58.30
1329;DHT22;658;48.820;9.354;2023-09-12T19:41:56;26.00;57.90
1329;DHT22;658;48.820;9.354;2023-09-12T19:46:01;26.10;57.70
1329;DHT22;658;48.820;9.354;2023-09-12T19:50:04;26.10;57.50
1329;DHT22;658;48.820;9.354;2023-09-12T19:54:06;26.10;57.40
1329;DHT22;658;48.820;9.354;2023-09-12T19:58:07;26.10;57.10
1329;DHT22;658;48.820;9.354;2023-09-12T20:02:08;26.00;57.40
1329;DHT22;658;48.820;9.354;2023-09-12T20:06:08;26.00;58.00
1329;DHT22;658;48.820;9.354;2023-09-12T20:10:09;26.00;58.30
1329;DHT22;658;48.820;9.354;2023-09-12T20:14:10;26.00;58.00
1329;DHT22;658;48.820;9.354;2023-09-12T20:18:12;25.90;58.70
1329;DHT22;658;48.820;9.354;2023-09-12T20:22:12;25.90;58.80
1329;DHT22;658;48.820;9.354;2023-09-12T20:26:13;25.90;58.30
1329;DHT22;658;48.820;9.354;2023-09-12T20:30:14;25.90;57.80
1329;DHT22;658;48.820;9.354;2023-09-12T20:34:15;25.90;58.00
1329;DHT22;658;48.820;9.354;2023-09-12T20:38:16;25.70;58.60
1329;DHT22;658;48.820;9.354;2023-09-12T20:42:19;25.70;58.80
1329;DHT22;658;48.820;9.354;2023-09-12T20:46:20;25.70;59.20
1329;DHT22;658;48.820;9.354;2023-09-12T20:50:21;25.70;59.10
1329;DHT22;658;48.820;9.354;2023-09-12T20:54:27;25.70;59.50
1329;DHT22;658;48.820;9.354;2023-09-12T20:58:28;25.60;59.40
1329;DHT22;658;48.820;9.354;2023-09-12T21:02:28;25.60;59.90
1329;DHT22;658;48.820;9.354;2023-09-12T21:06:29;25.40;60.50
1329;DHT22;658;48.820;9.354;2023-09-12T21:10:31;25.40;60.90
1329;DHT22;658;48.820;9.354;2023-09-12T21:14:32;25.30;61.30
1329;DHT22;658;48.820;9.354;2023-09-12T21:18:34;25.30;61.30
1329;DHT22;658;48.820;9.354;2023-09-12T21:22:35;25.30;61.40
1329;DHT22;658;48.820;9.354;2023-09-12T21:26:37;25.10;62.10
1329;DHT22;658;48.820;9.354;2023-09-12T21:30:38;25.10;62.60
1329;DHT22;658;48.820;9.354;2023-09-12T21:34:43;25.10;62.40
1329;DHT22;658;48.820;9.354;2023-09-12T21:38:44;25.00;62.50
1329;DHT22;658;48.820;9.354;2023-09-12T21:42:44;25.00;62.50
1329;DHT22;658;48.820;9.354;2023-09-12T21:46:45;25.00;62.70
1329;DHT22;658;48.820;9.354;2023-09-12T21:50:46;25.00;63.00
1329;DHT22;658;48.820;9.354;2023-09-12T21:54:46;25.00;63.10
1329;DHT22;658;48.820;9.354;2023-09-12T21:58:49;24.90;63.00
1329;DHT22;658;48.820;9.354;2023-09-12T22:02:50;24.90;63.20
1329;DHT22;658;48.820;9.354;2023-09-12T22:06:54;24.80;63.50
1329;DHT22;658;48.820;9.354;2023-09-12T22:10:56;24.80;63.60
1329;DHT22;658;48.820;9.354;2023-09-12T22:14:57;24.80;64.20
1329;DHT22;658;48.820;9.354;2023-09-12T22:18:58;24.80;63.50
1329;DHT22;658;48.820;9.354;2023-09-12T22:22:58;24.70;63.50
1329;DHT22;658;48.820;9.354;2023-09-12T22:26:59;24.70;63.80
1329;DHT22;658;48.820;9.354;2023-09-12T22:30:59;24.60;64.10
1329;DHT22;658;48.820;9.354;2023-09-12T22:35:00;24.60;64.10
1329;DHT22;658;48.820;9.354;2023-09-12T22:39:00;24.50;64.10
1329;DHT22;658;48.820;9.354;2023-09-12T22:43:03;24.50;64.50
1329;DHT22;658;48.820;9.354;2023-09-12T22:47:04;24.40;64.50
1329;DHT22;658;48.820;9.354;2023-09-12T22:51:04;24.40;64.70
1329;DHT22;658;48.820;9.354;2023-09-12T22:55:06;24.40;64.60
1329;DHT22;658;48.820;9.354;2023-09-12T22:59:06;24.40;64.40
1329;DHT22;658;48.820;9.354;2023-09-12T23:03:09;24.30;65.60
1329;DHT22;658;48.820;9.354;2023-09-12T23:07:09;24.30;65.10
1329;DHT22;658;48.820;9.354;2023-09-12T23:11:10;24.30;65.30
1329;DHT22;658;48.820;9.354;2023-09-12T23:15:10;24.20;65.60
1329;DHT22;658;48.820;9.354;2023-09-12T23:19:11;24.20;65.50
1329;DHT22;658;48.820;9.354;2023-09-12T23:23:12;24.10;65.60
1329;DHT22;658;48.820;9.354;2023-09-12T23:27:15;24.10;65.80
1329;DHT22;658;48.820;9.354;2023-09-12T23:31:15;24.00;66.70
1329;DHT22;658;48.820;9.354;2023-09-12T23:35:16;24.00;66.60
1329;DHT22;658;48.820;9.354;2023-09-12T23:39:16;24.00;66.90
1329;DHT22;658;48.820;9.354;2023-09-12T23:43:17;24.00;66.80
1329;DHT22;658;48.820;9.354;2023-09-12T23:47:20;24.00;66.90
1329;DHT22;658;48.820;9.354;2023-09-12T23:51:20;24.00;67.50
1329;DHT22;658;48.820;9.354;2023-09-12T23:55:21;23.90;67.90
1329;DHT22;658;48.820;9.354;2023-09-12T23:59:22;23.90;68.30
